Time;durP1;ratioP1;P1;durP2;ratioP2;P2;SDS_P1;SDS_P2;PMS_P1;PMS_P2;Temp;Humidity;BMP_temperature;BMP_pressure;BME280_temperature;BME280_humidity;BME280_pressure;Samples;Min_cycle;Max_cycle;Signal;HPM_P1;HPM_P2
2021/11/10 00:08:08;;;;;;;53.1;70.1;;;;;;;0.5;82.8;100330;;;;
2021/11/10 00:18:08;;;;;;;53.1;70.1;;;;;;;0.6;83.6;100340;;;;
2021/11/10 00:28:08;;;;;;;41.3;52.9;;;;;;;0.9;84.3;100340;;;;
2021/11/10 00:38:08;;;;;;;41.3;52.9;;;;;;;1;84;100340;;;;
2021/11/10 00:49:08;;;;;;;36.7;43.9;;;;;;;1;83.7;100360;;;;
2021/11/10 00:59:08;;;;;;;36.7;43.9;;;;;;;1;83.6;100320;;;;
2021/11/10 01:09:10;;;;;;;36.7;43.9;;;;;;;1;83.7;100320;;;;
2021/11/10 01:19:08;;;;;;;29.9;35;;;;;;;0.8;82.9;100320;;;;
2021/11/10 01:29:08;;;;;;;29.9;35;;;;;;;0.6;82.8;100290;;;;
2021/11/10 01:39:08;;;;;;;29.9;35;;;;;;;0.5;81.9;100280;;;;
2021/11/10 01:49:08;;;;;;;27.3;33.3;;;;;;;0.3;81.7;100290;;;;
2021/11/10 01:59:08;;;;;;;27.3;33.3;;;;;;;0.2;81.7;100310;;;;
2021/11/10 02:10:08;;;;;;;27.3;33.3;;;;;;;-0.1;82.8;100280;;;;
2021/11/10 02:20:08;;;;;;;28.4;33.7;;;;;;;0.2;82.5;100290;;;;
2021/11/10 02:30:08;;;;;;;28.4;33.7;;;;;;;0.2;82.6;100280;;;;
2021/11/10 02:40:08;;;;;;;28.4;33.7;;;;;;;0.3;82.9;100270;;;;
2021/11/10 02:50:08;;;;;;;30.5;37.5;;;;;;;0.3;82.3;100270;;;;
2021/11/10 03:01:08;;;;;;;30.5;37.5;;;;;;;0.4;82.3;100260;;;;
2021/11/10 03:11:08;;;;;;;30.5;37.5;;;;;;;0.3;82.1;100260;;;;
2021/11/10 03:21:08;;;;;;;26.8;31.1;;;;;;;0.1;82;100240;;;;
2021/11/10 03:31:08;;;;;;;26.8;31.1;;;;;;;-0.1;81.8;100250;;;;
2021/11/10 03:41:08;;;;;;;26.8;31.1;;;;;;;-0.2;81.5;100250;;;;
2021/11/10 03:51:08;;;;;;;23.7;29.3;;;;;;;-0.3;81.1;100230;;;;
2021/11/10 04:01:08;;;;;;;23.7;29.3;;;;;;;-0.5;82.3;100220;;;;
2021/11/10 04:11:08;;;;;;;23.7;29.3;;;;;;;-0.6;81.6;100200;;;;
2021/11/10 04:21:08;;;;;;;25.1;32.6;;;;;;;-0.8;82.2;100200;;;;
2021/11/10 04:31:08;;;;;;;25.1;32.6;;;;;;;-0.8;82.5;100190;;;;
2021/11/10 04:41:08;;;;;;;25.1;32.6;;;;;;;-0.8;81.9;100160;;;;
2021/11/10 04:51:08;;;;;;;23.6;31.3;;;;;;;-0.8;81.7;100170;;;;
2021/11/10 05:01:14;;;;;;;23.6;31.3;;;;;;;-0.9;81.9;100170;;;;
2021/11/10 05:11:08;;;;;;;23.6;31.3;;;;;;;-0.9;81.7;100180;;;;
2021/11/10 05:21:08;;;;;;;16.6;21.5;;;;;;;-0.8;82;100200;;;;
2021/11/10 05:31:08;;;;;;;16.6;21.5;;;;;;;-0.8;82.6;100200;;;;
2021/11/10 05:41:08;;;;;;;16.6;21.5;;;;;;;-0.5;83;100190;;;;
2021/11/10 05:51:08;;;;;;;17.5;21.4;;;;;;;-0.4;82.8;100200;;;;
2021/11/10 06:01:08;;;;;;;17.5;21.4;;;;;;;-0.4;83;100200;;;;
2021/11/10 06:11:08;;;;;;;17.5;21.4;;;;;;;-0.4;82.8;100190;;;;
2021/11/10 06:21:08;;;;;;;19.8;24.6;;;;;;;-0.1;83;100200;;;;
2021/11/10 06:31:08;;;;;;;19.8;24.6;;;;;;;-0.4;82.3;100190;;;;
2021/11/10 06:41:08;;;;;;;19.8;24.6;;;;;;;-0.5;82.7;100200;;;;
2021/11/10 06:51:08;;;;;;;21.8;27.2;;;;;;;-0.1;82.9;100210;;;;
2021/11/10 07:01:08;;;;;;;21.8;27.2;;;;;;;0.3;82.7;100210;;;;
2021/11/10 07:11:08;;;;;;;21.8;27.2;;;;;;;0.7;83;100200;;;;
2021/11/10 07:21:08;;;;;;;21.7;24.9;;;;;;;1;82.5;100200;;;;
2021/11/10 07:31:08;;;;;;;21.7;24.9;;;;;;;0.9;82.1;100190;;;;
2021/11/10 07:41:09;;;;;;;21.7;24.9;;;;;;;1.1;81.7;100180;;;;
2021/11/10 07:51:08;;;;;;;21;23.4;;;;;;;1.3;81.2;100180;;;;
2021/11/10 08:01:08;;;;;;;21;23.4;;;;;;;1.7;81;100190;;;;
2021/11/10 08:12:08;;;;;;;21;23.4;;;;;;;2;80.8;100180;;;;
2021/11/10 08:22:08;;;;;;;25.5;32.2;;;;;;;2.5;80.3;100170;;;;
2021/11/10 08:32:08;;;;;;;25.5;32.2;;;;;;;2.5;79.8;100150;;;;
2021/11/10 08:42:09;;;;;;;25.5;32.2;;;;;;;2.8;79.5;100150;;;;
2021/11/10 08:52:09;;;;;;;23.7;29;;;;;;;3.2;79.7;100130;;;;
2021/11/10 09:02:08;;;;;;;23.7;29;;;;;;;3.7;80.3;100130;;;;
2021/11/10 09:12:09;;;;;;;23.7;29;;;;;;;4.2;80.5;100130;;;;
2021/11/10 09:22:08;;;;;;;25.8;29.2;;;;;;;4.5;78.8;100120;;;;
2021/11/10 09:32:08;;;;;;;25.8;29.2;;;;;;;4.6;79.7;100120;;;;
2021/11/10 09:42:08;;;;;;;25.8;29.2;;;;;;;5.1;78.9;100110;;;;
2021/11/10 09:52:08;;;;;;;27.2;32.7;;;;;;;6;79;100100;;;;
2021/11/10 10:02:11;;;;;;;27.2;32.7;;;;;;;6.1;77.6;100090;;;;
2021/11/10 10:12:08;;;;;;;27.2;32.7;;;;;;;6.5;77.9;100070;;;;
2021/11/10 10:22:08;;;;;;;24.3;29.3;;;;;;;7.1;77.3;100060;;;;
2021/11/10 10:32:08;;;;;;;24.3;29.3;;;;;;;7.6;76.6;100040;;;;
2021/11/10 10:42:08;;;;;;;24.3;29.3;;;;;;;8.1;75.1;100020;;;;
2021/11/10 10:52:08;;;;;;;27.1;36.2;;;;;;;8.3;74;100000;;;;
2021/11/10 11:02:08;;;;;;;27.1;36.2;;;;;;;8.6;73.4;100000;;;;
2021/11/10 11:12:11;;;;;;;27.1;36.2;;;;;;;8.9;72.6;99980;;;;
2021/11/10 11:22:08;;;;;;;27.5;34.7;;;;;;;9.3;70.4;99970;;;;
2021/11/10 11:32:08;;;;;;;27.5;34.7;;;;;;;9.6;67.8;99950;;;;
2021/11/10 11:42:08;;;;;;;27.5;34.7;;;;;;;10;68.1;99940;;;;
2021/11/10 11:52:08;;;;;;;21.6;26.5;;;;;;;10.5;66.4;99920;;;;
2021/11/10 12:02:08;;;;;;;21.6;26.5;;;;;;;10.7;64.3;99900;;;;
2021/11/10 12:12:08;;;;;;;21.6;26.5;;;;;;;11;63.8;99900;;;;
2021/11/10 12:22:08;;;;;;;19.1;24.2;;;;;;;11.2;63.3;99880;;;;
2021/11/10 12:32:08;;;;;;;19.1;24.2;;;;;;;11.5;62.6;99870;;;;
2021/11/10 12:42:08;;;;;;;19.1;24.2;;;;;;;11.4;62.7;99860;;;;
2021/11/10 12:52:09;;;;;;;21.5;27.6;;;;;;;11.6;62.1;99860;;;;
2021/11/10 13:02:08;;;;;;;21.5;27.6;;;;;;;11.7;62.2;99850;;;;
2021/11/10 13:12:08;;;;;;;21.5;27.6;;;;;;;11.7;62.7;99840;;;;
2021/11/10 13:22:08;;;;;;;19.4;26.5;;;;;;;11.6;62.6;99830;;;;
2021/11/10 13:32:08;;;;;;;19.4;26.5;;;;;;;11.3;63.4;99820;;;;
2021/11/10 13:42:10;;;;;;;19.4;26.5;;;;;;;11.2;64.3;99810;;;;
2021/11/10 13:52:08;;;;;;;19.9;27.9;;;;;;;11;65.4;99800;;;;
2021/11/10 14:02:08;;;;;;;19.9;27.9;;;;;;;10.7;65.8;99800;;;;
2021/11/10 14:12:08;;;;;;;19.9;27.9;;;;;;;10.4;66.7;99790;;;;
2021/11/10 14:22:08;;;;;;;20.3;27.3;;;;;;;9.9;68;99780;;;;
2021/11/10 14:32:08;;;;;;;20.3;27.3;;;;;;;9.5;69.4;99770;;;;
2021/11/10 14:42:12;;;;;;;20.3;27.3;;;;;;;9.1;69.9;99750;;;;
2021/11/10 14:52:09;;;;;;;20.2;26.7;;;;;;;8.6;70.8;99750;;;;
2021/11/10 15:02:08;;;;;;;20.2;26.7;;;;;;;8.2;72.2;99740;;;;
2021/11/10 15:12:08;;;;;;;20.2;26.7;;;;;;;7.7;73.6;99730;;;;
2021/11/10 15:22:08;;;;;;;21.1;29;;;;;;;7.3;75.2;99730;;;;
2021/11/10 15:32:08;;;;;;;21.1;29;;;;;;;6.9;74.6;99720;;;;
2021/11/10 15:42:08;;;;;;;21.1;29;;;;;;;6.5;75.6;99730;;;;
2021/11/10 15:52:08;;;;;;;23.5;27.8;;;;;;;6.2;76.5;99720;;;;
2021/11/10 16:02:08;;;;;;;23.5;27.8;;;;;;;5.9;77.2;99730;;;;
2021/11/10 16:12:08;;;;;;;23.5;27.8;;;;;;;5.8;78.4;99740;;;;
2021/11/10 16:22:08;;;;;;;32.9;39.2;;;;;;;5.7;79.4;99740;;;;
2021/11/10 16:33:08;;;;;;;32.9;39.2;;;;;;;5.9;80.1;99740;;;;
2021/11/10 16:43:08;;;;;;;32.9;39.2;;;;;;;5.6;79.3;99740;;;;
2021/11/10 16:53:08;;;;;;;46.6;54.1;;;;;;;5.4;79.1;99750;;;;
2021/11/10 17:03:08;;;;;;;46.6;54.1;;;;;;;5.1;79.4;99750;;;;
2021/11/10 17:13:08;;;;;;;46.6;54.1;;;;;;;4.8;79.8;99740;;;;
2021/11/10 17:23:08;;;;;;;44.4;53.5;;;;;;;4.5;79.6;99750;;;;
2021/11/10 17:33:12;;;;;;;44.4;53.5;;;;;;;4.2;79.4;99750;;;;
2021/11/10 17:43:08;;;;;;;44.4;53.5;;;;;;;4;79.8;99750;;;;
2021/11/10 17:53:08;;;;;;;57.5;70.9;;;;;;;4;80.8;99740;;;;
2021/11/10 18:03:08;;;;;;;57.5;70.9;;;;;;;4;81.8;99750;;;;
2021/11/10 18:13:08;;;;;;;57.5;70.9;;;;;;;3.9;80.8;99760;;;;
2021/11/10 18:23:08;;;;;;;94.1;112.1;;;;;;;3.6;80.1;99750;;;;
2021/11/10 18:33:08;;;;;;;94.1;112.1;;;;;;;3.5;80.3;99730;;;;
2021/11/10 18:43:08;;;;;;;94.1;112.1;;;;;;;3.4;80.8;99740;;;;
2021/11/10 18:53:08;;;;;;;64.1;81;;;;;;;3.3;80.3;99740;;;;
2021/11/10 19:03:10;;;;;;;64.1;81;;;;;;;3;80.7;99750;;;;
2021/11/10 19:13:20;;;;;;;64.1;81;;;;;;;3;80.7;99760;;;;
2021/11/10 19:23:08;;;;;;;78;90.6;;;;;;;2.9;80.8;99760;;;;
2021/11/10 19:33:08;;;;;;;78;90.6;;;;;;;3;81.5;99770;;;;
2021/11/10 19:44:08;;;;;;;78;90.6;;;;;;;3.1;82.2;99760;;;;
2021/11/10 19:54:08;;;;;;;72.1;84.5;;;;;;;3.4;82.3;99760;;;;
2021/11/10 20:04:09;;;;;;;72.1;84.5;;;;;;;3.4;82.3;99750;;;;
2021/11/10 20:14:09;;;;;;;72.1;84.5;;;;;;;3.6;81.9;99760;;;;
2021/11/10 20:24:09;;;;;;;80.9;95;;;;;;;3.3;80.6;99770;;;;
2021/11/10 20:34:08;;;;;;;80.9;95;;;;;;;3;80.1;99770;;;;
2021/11/10 20:44:08;;;;;;;80.9;95;;;;;;;2.7;80.8;99750;;;;
2021/11/10 20:55:09;;;;;;;110;128.1;;;;;;;2.5;80.9;99740;;;;
2021/11/10 21:05:08;;;;;;;110;128.1;;;;;;;2.5;82.1;99730;;;;
2021/11/10 21:15:08;;;;;;;110;128.1;;;;;;;2.4;82;99730;;;;
2021/11/10 21:25:08;;;;;;;78.7;89.2;;;;;;;2.3;82.4;99720;;;;
2021/11/10 21:35:08;;;;;;;78.7;89.2;;;;;;;2.3;82.3;99730;;;;
2021/11/10 21:45:08;;;;;;;78.7;89.2;;;;;;;2.1;81.6;99720;;;;
2021/11/10 21:55:08;;;;;;;56.2;70;;;;;;;2.1;82.3;99710;;;;
2021/11/10 22:05:08;;;;;;;56.2;70;;;;;;;2.1;82.4;99700;;;;
2021/11/10 22:15:08;;;;;;;56.2;70;;;;;;;1.9;81.7;99700;;;;
2021/11/10 22:25:08;;;;;;;41.4;48.7;;;;;;;1.8;81.2;99720;;;;
2021/11/10 22:35:08;;;;;;;41.4;48.7;;;;;;;1.7;81.2;99720;;;;
2021/11/10 22:45:08;;;;;;;41.4;48.7;;;;;;;1.5;81.1;99710;;;;
2021/11/10 22:55:08;;;;;;;58.8;77.5;;;;;;;1.4;81;99730;;;;
2021/11/10 23:05:08;;;;;;;58.8;77.5;;;;;;;1.3;81.5;99730;;;;
2021/11/10 23:15:08;;;;;;;58.8;77.5;;;;;;;1.3;82.1;99720;;;;
2021/11/10 23:25:08;;;;;;;66.2;80.7;;;;;;;1.3;82.1;99740;;;;
2021/11/10 23:35:08;;;;;;;66.2;80.7;;;;;;;1.2;81.7;99750;;;;
2021/11/10 23:45:08;;;;;;;66.2;80.7;;;;;;;1.1;81.5;99740;;;;
2021/11/10 23:55:08;;;;;;;69.9;84;;;;;;;1;81.9;99750;;;;
